KELP/ELP METAR and TAF weather

Enter ICAO airport designator
Station Type Date Time Source
KELP METAR 2019/06/26 22:51 UTC NOAA

KELP 262251Z 17011KT 10SM FEW110 SCT250 37/07 A2999 RMK AO2 SLP073 CB DSNT NE SE AND SW SHRA DSNT NE S AND S T03720072


Station Type Date Time Source
KELP Decoded METAR 2019/06/26 22:51 UTC NOAA

EL PASO INTERNATIONAL AIRPORT , TX, United States (KELP) 31-49N 106-23W 1197M
Jun 26, 2019 - 06:51 PM EDT / 2019.06.26 2251 UTC
Wind: from the S (170 degrees) at 13 MPH (11 KT):0
Visibility: 10 mile(s):0
Sky conditions: partly cloudy
Weather: Cumulonimbus clouds observed
Temperature: 99.0 F (37.2 C)
Dew Point: 45.0 F (7.2 C)
Relative Humidity: 15%
Pressure (altimeter): 29.99 in. Hg (1015 hPa)
ob: KELP 262251Z 17011KT 10SM FEW110 SCT250 37/07 A2999 RMK AO2 SLP073 CB DSNT NE SE AND SW SHRA DSNT NE S AND S T03720072
cycle: 23

Station Type Date Time Source
KELP TAF 2019/06/26 18:24 UTC NOAA

TAF KELP 261722Z 2618/2718 16011G16KT P6SM FEW100 SCT250
FM270600 08007KT P6SM FEW100
FM271200 10006KT P6SM SKC

Example: see airport list